Time;durP1;ratioP1;P1;durP2;ratioP2;P2;SDS_P1;SDS_P2;PMS_P1;PMS_P2;Temp;Humidity;BMP_temperature;BMP_pressure;BME280_temperature;BME280_humidity;BME280_pressure;Samples;Min_cycle;Max_cycle;Signal;HPM_P1;HPM_P2
2023/01/28 00:00:30;;;;;;;;;28.67;27.67;;;;;4.58;68.12;102076.31;5057436;28;45352;-75
2023/01/28 00:02:55;;;;;;;;;31.67;28.67;;;;;5.46;68.13;102199.50;5058430;28;45503;-73
2023/01/28 00:05:22;;;;;;;;;37.33;32.67;;;;;4.64;67.24;102069.09;5040606;28;47959;-75
2023/01/28 00:07:48;;;;;;;;;34.33;30.67;;;;;4.66;68.42;102098.84;5057072;28;45488;-73
2023/01/28 00:10:15;;;;;;;;;23.33;18.67;;;;;5.14;67.70;102186.06;5057643;28;45266;-77
2023/01/28 00:12:40;;;;;;;;;33.00;28.00;;;;;5.37;68.03;102237.69;5039299;28;45262;-73
2023/01/28 00:15:06;;;;;;;;;29.67;26.33;;;;;5.37;68.02;102244.75;5057537;28;46320;-75
2023/01/28 00:17:32;;;;;;;;;33.67;29.33;;;;;5.23;67.92;102229.63;5057082;28;45310;-73
2023/01/28 00:19:57;;;;;;;;;39.33;33.00;;;;;4.99;68.38;102196.47;5039092;28;45474;-75
2023/01/28 00:22:22;;;;;;;;;39.67;31.00;;;;;4.94;68.19;102209.88;5057129;28;45313;-74
2023/01/28 00:24:48;;;;;;;;;33.00;30.33;;;;;5.12;68.74;102211.66;5056668;28;45477;-75
2023/01/28 00:27:14;;;;;;;;;32.33;28.67;;;;;5.00;68.57;102187.66;5038560;28;45385;-74
2023/01/28 00:29:39;;;;;;;;;37.67;32.00;;;;;5.24;68.11;102233.97;5056881;28;45312;-73
2023/01/28 00:32:05;;;;;;;;;25.33;20.67;;;;;4.83;68.25;102177.94;5056652;28;45430;-73
2023/01/28 00:34:30;;;;;;;;;37.67;33.33;;;;;5.02;67.98;102193.72;5055629;28;47332;-74
2023/01/28 00:36:58;;;;;;;;;35.33;32.67;;;;;4.83;68.47;102185.84;5055864;28;45299;-77
2023/01/28 00:39:25;;;;;;;;;26.67;24.00;;;;;5.21;68.33;102238.53;5059169;28;45336;-73
2023/01/28 00:41:52;;;;;;;;;32.33;29.00;;;;;5.27;68.21;102222.41;5059101;28;45220;-74
2023/01/28 00:44:18;;;;;;;;;31.33;29.00;;;;;5.32;67.57;102230.94;5058864;28;46568;-74
2023/01/28 00:46:44;;;;;;;;;36.33;32.00;;;;;5.28;67.44;102206.50;5059498;28;46589;-74
2023/01/28 00:49:10;;;;;;;;;36.00;31.33;;;;;4.41;66.91;102036.78;5059168;28;45371;-73
2023/01/28 00:51:35;;;;;;;;;33.67;28.33;;;;;4.79;67.29;102131.56;5059448;28;45320;-74
2023/01/28 00:54:00;;;;;;;;;27.67;21.00;;;;;5.28;67.45;102221.47;5060400;28;46535;-74
2023/01/28 00:56:26;;;;;;;;;31.00;26.00;;;;;5.38;66.88;102213.03;5059031;28;45391;-75
2023/01/28 00:58:51;;;;;;;;;38.33;29.00;;;;;4.87;67.30;102142.59;5060395;28;45804;-74
2023/01/28 01:01:21;;;;;;;;;31.67;27.33;;;;;5.41;67.52;102225.25;5059236;28;45530;-74
2023/01/28 01:03:56;;;;;;;;;27.33;25.00;;;;;5.19;67.07;102184.06;5059808;28;46493;-76
2023/01/28 01:06:23;;;;;;;;;30.67;24.33;;;;;5.27;67.02;102228.53;5059740;28;45280;-75
2023/01/28 01:08:49;;;;;;;;;34.33;29.33;;;;;5.24;66.77;102217.28;5058836;28;45400;-74
2023/01/28 01:11:14;;;;;;;;;43.33;30.00;;;;;4.33;66.45;102059.97;5058943;28;45337;-77
2023/01/28 01:13:40;;;;;;;;;38.67;27.67;;;;;5.38;67.13;102220.94;5059834;28;45572;-74
2023/01/28 01:16:16;;;;;;;;;32.00;28.33;;;;;5.43;66.57;102265.59;5059827;28;45459;-73
2023/01/28 01:18:43;;;;;;;;;36.67;24.67;;;;;5.01;67.14;102208.69;5059779;28;45552;-74
2023/01/28 01:21:10;;;;;;;;;26.33;21.00;;;;;5.04;67.62;102198.00;5059962;28;45643;-76
2023/01/28 01:23:35;;;;;;;;;36.67;31.33;;;;;5.21;66.71;102223.56;5058506;28;46813;-75
2023/01/28 01:26:03;;;;;;;;;27.00;26.00;;;;;5.24;67.08;102227.84;5058422;28;45439;-74
2023/01/28 01:28:28;;;;;;;;;22.00;20.67;;;;;4.03;67.72;102040.34;5059457;28;45382;-74
2023/01/28 01:31:02;;;;;;;;;29.33;23.67;;;;;5.23;67.27;102252.50;5059466;28;45338;-76
2023/01/28 01:33:28;;;;;;;;;35.67;26.00;;;;;4.23;67.00;102096.44;5059181;28;45686;-73
2023/01/28 01:35:54;;;;;;;;;27.67;23.33;;;;;4.41;66.62;102115.78;5059186;28;45549;-74
2023/01/28 01:38:20;;;;;;;;;35.00;29.33;;;;;4.59;66.70;102124.59;5059239;28;45311;-73
2023/01/28 01:40:46;;;;;;;;;28.33;23.33;;;;;4.76;66.36;102176.50;5059353;28;45329;-75
2023/01/28 01:43:20;;;;;;;;;33.00;25.67;;;;;5.22;66.85;102230.53;5059031;28;45785;-75
2023/01/28 01:45:54;;;;;;;;;23.67;18.00;;;;;5.29;66.99;102252.19;5058989;28;45313;-74
2023/01/28 01:48:23;;;;;;;;;28.67;27.67;;;;;5.31;66.17;102235.38;5040874;28;45558;-72
2023/01/28 01:50:57;;;;;;;;;25.67;24.67;;;;;5.33;66.12;102241.41;5059001;28;45484;-74
2023/01/28 01:53:25;;;;;;;;;31.33;25.00;;;;;5.15;66.39;102237.88;5059441;28;45515;-72
2023/01/28 01:55:53;;;;;;;;;28.67;27.33;;;;;4.33;66.75;102098.63;5058656;28;45222;-74
2023/01/28 01:58:24;;;;;;;;;26.67;22.67;;;;;5.08;66.44;102252.28;5058914;28;45519;-74
2023/01/28 02:00:50;;;;;;;;;37.67;29.33;;;;;4.99;67.40;102250.06;5058694;28;45249;-74
2023/01/28 02:03:21;;;;;;;;;22.67;19.67;;;;;4.79;66.60;102195.63;5058671;28;45587;-75
2023/01/28 02:05:49;;;;;;;;;26.33;20.67;;;;;4.98;67.49;102250.97;5060413;28;45519;-74
2023/01/28 02:08:20;;;;;;;;;17.67;17.33;;;;;5.10;67.00;102260.13;5058770;28;45555;-78
2023/01/28 02:10:49;;;;;;;;;25.67;25.67;;;;;4.99;67.19;102247.41;5058632;28;45316;-73
2023/01/28 02:13:18;;;;;;;;;26.67;25.67;;;;;5.07;66.96;102255.00;5058187;28;46650;-75
2023/01/28 02:15:45;;;;;;;;;28.50;22.00;;;;;4.27;66.79;102086.59;5058842;28;45325;-73
2023/01/28 02:18:10;;;;;;;;;24.33;22.00;;;;;4.84;66.49;102187.53;5058823;28;45410;-74
2023/01/28 02:21:13;;;;;;;;;25.67;17.67;;;;;5.36;66.94;102250.97;5058822;28;45370;-76
2023/01/28 02:24:07;;;;;;;;;22.00;21.00;;;;;5.38;66.11;102249.09;5060723;28;46804;-75
2023/01/28 02:26:46;;;;;;;;;24.67;22.33;;;;;4.79;65.94;102155.25;5058783;28;45503;-75
2023/01/28 02:29:11;;;;;;;;;28.33;25.33;;;;;5.35;65.97;102246.63;5058463;28;45344;-75
2023/01/28 02:31:48;;;;;;;;;34.67;30.67;;;;;5.29;65.71;102239.00;5040895;28;45444;-76
2023/01/28 02:35:06;;;;;;;;;26.33;23.67;;;;;5.24;65.88;102230.47;5060785;28;46458;-74
2023/01/28 02:37:45;;;;;;;;;32.67;25.00;;;;;4.12;66.36;102043.41;5025139;28;45220;-73
2023/01/28 02:40:18;;;;;;;;;31.00;28.67;;;;;5.27;66.29;102254.06;5040660;28;45356;-75
2023/01/28 02:42:44;;;;;;;;;27.33;22.00;;;;;5.08;66.41;102231.19;5040440;28;45500;-75
2023/01/28 02:45:24;;;;;;;;;35.33;24.67;;;;;4.73;66.85;102190.66;5058152;28;45780;-73
2023/01/28 02:47:56;;;;;;;;;28.67;26.67;;;;;5.14;66.62;102259.88;5058404;28;45554;-73
2023/01/28 02:50:24;;;;;;;;;22.33;21.00;;;;;4.67;66.59;102183.06;5058194;28;45491;-77
2023/01/28 02:56:18;;;;;;;;;22.33;17.00;;;;;5.13;66.76;102252.91;5058124;28;45881;-73
2023/01/28 02:58:55;;;;;;;;;26.33;23.00;;;;;5.11;66.87;102275.00;5057962;28;45396;-73
2023/01/28 03:01:42;;;;;;;;;41.00;30.50;;;;;4.15;66.64;102108.22;5057992;28;45609;-76
2023/01/28 03:04:21;;;;;;;;;36.00;33.00;;;;;4.52;67.69;102195.13;5040070;28;45528;-75
2023/01/28 03:06:52;;;;;;;;;36.00;33.33;;;;;4.77;67.16;102220.34;5039003;28;48077;-72
2023/01/28 03:09:22;;;;;;;;;29.33;26.33;;;;;5.00;67.34;102253.53;5057796;28;45262;-75
2023/01/28 03:37:07;;;;;;;;;31.33;28.00;;;;;4.92;66.21;102251.28;5057579;28;45381;-73
2023/01/28 03:39:33;;;;;;;;;31.67;26.33;;;;;4.55;66.05;102187.09;5039133;28;47928;-73
2023/01/28 03:42:02;;;;;;;;;33.67;26.33;;;;;5.08;66.68;102280.41;5057358;28;45505;-74
2023/01/28 03:47:12;;;;;;;;;35.67;30.00;;;;;4.84;65.78;102234.97;5057338;28;45305;-73
2023/01/28 03:49:40;;;;;;;;;31.67;24.67;;;;;5.06;65.42;102280.50;5038801;28;46502;-76
2023/01/28 03:52:06;;;;;;;;;30.33;27.00;;;;;4.91;66.69;102262.75;5057204;28;45317;-74
2023/01/28 03:54:31;;;;;;;;;29.67;25.33;;;;;5.04;65.91;102278.84;5039089;28;45332;-72
2023/01/28 03:56:56;;;;;;;;;29.67;27.67;;;;;4.75;65.79;102214.31;5057212;28;45440;-76
2023/01/28 03:59:22;;;;;;;;;28.67;23.00;;;;;5.18;65.49;102282.53;5056906;28;45683;-74
2023/01/28 04:01:49;;;;;;;;;33.00;26.67;;;;;4.86;65.47;102238.38;5056845;28;45301;-75
2023/01/28 04:04:23;;;;;;;;;32.00;29.67;;;;;5.17;65.38;102296.66;5057178;28;45512;-73
2023/01/28 04:06:53;;;;;;;;;30.67;26.67;;;;;5.19;65.18;102293.94;5057153;28;45399;-75
2023/01/28 04:09:22;;;;;;;;;34.00;28.00;;;;;4.31;65.69;102127.66;5056722;28;45758;-74
2023/01/28 04:11:49;;;;;;;;;39.00;29.00;;;;;5.27;65.28;102296.25;5056915;28;45344;-73
2023/01/28 04:14:15;;;;;;;;;39.67;31.33;;;;;4.62;65.49;102210.53;5056779;28;45516;-72
2023/01/28 04:16:41;;;;;;;;;29.00;27.67;;;;;5.23;64.59;102305.22;5039026;28;45554;-72
2023/01/28 04:19:07;;;;;;;;;32.67;28.33;;;;;4.78;65.28;102225.53;5058162;28;46434;-72
2023/01/28 04:21:33;;;;;;;;;23.33;21.00;;;;;4.86;65.10;102243.66;5060207;28;45505;-73
2023/01/28 04:23:58;;;;;;;;;23.00;22.00;;;;;4.78;65.08;102236.09;5060284;28;45585;-74
2023/01/28 04:26:24;;;;;;;;;33.67;24.00;;;;;5.07;65.27;102299.78;5060827;28;45420;-73
2023/01/28 04:28:49;;;;;;;;;31.33;27.00;;;;;4.08;65.17;102138.38;5065409;28;47611;-74
2023/01/28 04:31:15;;;;;;;;;26.67;26.00;;;;;4.38;65.38;102194.91;5080322;27;45306;-75
2023/01/28 04:33:40;;;;;;;;;30.33;25.00;;;;;4.77;65.30;102266.00;5080570;28;45293;-74
2023/01/28 04:36:05;;;;;;;;;34.33;29.33;;;;;3.99;65.36;102131.72;5080723;27;45349;-74
2023/01/28 04:38:31;;;;;;;;;29.67;25.33;;;;;4.93;65.33;102307.47;5078776;28;48253;-75
2023/01/28 04:40:56;;;;;;;;;27.67;27.67;;;;;4.64;65.79;102267.50;5080482;28;45362;-75
2023/01/28 04:43:21;;;;;;;;;35.33;26.67;;;;;4.63;66.04;102267.56;5081329;28;60355;-73
2023/01/28 04:45:47;;;;;;;;;33.00;26.00;;;;;5.02;66.69;102328.16;5081496;27;45282;-74
2023/01/28 04:48:14;;;;;;;;;32.33;28.33;;;;;5.12;65.82;102338.19;5080198;27;45333;-71
2023/01/28 04:50:39;;;;;;;;;24.33;20.67;;;;;4.90;65.33;102292.66;5080240;27;45246;-73
2023/01/28 04:53:05;;;;;;;;;30.00;24.67;;;;;4.82;65.76;102293.00;5080069;27;45245;-72
2023/01/28 04:55:30;;;;;;;;;29.33;27.00;;;;;4.94;65.28;102309.19;5080212;27;45213;-72
2023/01/28 04:57:56;;;;;;;;;20.00;17.67;;;;;4.91;65.23;102312.81;5078950;28;47745;-72
2023/01/28 05:00:21;;;;;;;;;37.67;30.67;;;;;4.64;64.94;102275.41;5082752;27;45489;-75
2023/01/28 05:02:46;;;;;;;;;39.33;24.33;;;;;4.84;65.50;102327.19;5080378;28;45272;-74
2023/01/28 05:05:12;;;;;;;;;32.67;30.33;;;;;4.79;66.73;102337.06;5079105;28;45466;-72
2023/01/28 05:07:37;;;;;;;;;37.67;26.00;;;;;4.52;65.94;102275.94;5079285;28;48450;-72
2023/01/28 05:10:03;;;;;;;;;32.67;25.00;;;;;4.93;66.20;102345.22;5079796;28;45517;-77
2023/01/28 05:12:31;;;;;;;;;40.33;31.00;;;;;4.99;65.65;102333.53;5079702;27;45474;-72
2023/01/28 05:14:59;;;;;;;;;26.00;23.67;;;;;4.75;65.42;102295.97;5080552;27;45474;-73
2023/01/28 05:17:24;;;;;;;;;30.00;22.67;;;;;3.26;64.41;102032.38;5080064;27;45845;-73
2023/01/28 05:19:50;;;;;;;;;37.33;31.33;;;;;4.98;64.90;102332.69;5079514;27;45434;-74
2023/01/28 05:22:15;;;;;;;;;39.33;31.67;;;;;4.71;65.19;102291.78;5079734;27;45433;-73
2023/01/28 05:24:40;;;;;;;;;30.33;26.67;;;;;5.03;65.40;102333.34;5078626;28;45528;-74
2023/01/28 05:27:06;;;;;;;;;23.00;20.33;;;;;5.05;65.35;102344.69;5079881;28;46555;-75
2023/01/28 05:29:31;;;;;;;;;32.33;28.33;;;;;4.86;65.38;102286.69;5059908;28;45210;-72
2023/01/28 05:31:57;;;;;;;;;32.33;27.00;;;;;4.60;65.92;102276.44;5040545;28;45265;-73
2023/01/28 05:34:22;;;;;;;;;25.00;20.67;;;;;4.52;65.28;102271.50;5059832;28;45503;-73
2023/01/28 05:36:47;;;;;;;;;31.67;25.67;;;;;4.13;66.00;102178.50;5058566;28;61378;-74
2023/01/28 05:39:12;;;;;;;;;40.67;35.33;;;;;5.05;65.74;102346.47;5058898;28;45219;-73
2023/01/28 05:41:38;;;;;;;;;30.00;27.00;;;;;4.91;65.10;102315.44;5058929;28;45293;-74
2023/01/28 05:44:03;;;;;;;;;35.33;29.67;;;;;3.73;65.61;102151.28;5060644;28;45362;-74
2023/01/28 05:46:29;;;;;;;;;38.67;30.67;;;;;4.01;65.36;102173.78;5042967;28;48245;-73
2023/01/28 05:48:54;;;;;;;;;28.33;22.00;;;;;4.87;65.87;102320.00;5041266;28;46141;-72
2023/01/28 05:51:20;;;;;;;;;26.67;26.33;;;;;5.08;65.94;102351.59;5059365;28;45817;-74
2023/01/28 05:53:45;;;;;;;;;22.00;22.00;;;;;4.19;65.47;102194.00;5041238;28;45466;-74
2023/01/28 05:56:10;;;;;;;;;38.33;31.67;;;;;5.01;65.61;102332.56;5041108;28;48324;-72
2023/01/28 05:58:36;;;;;;;;;42.33;34.00;;;;;4.19;66.30;102201.91;5058926;28;45504;-72
2023/01/28 06:01:01;;;;;;;;;37.67;28.00;;;;;4.83;66.20;102328.97;5059160;28;45294;-72
2023/01/28 06:03:27;;;;;;;;;20.00;15.33;;;;;4.19;66.12;102228.22;5058938;28;45363;-74
2023/01/28 06:05:52;;;;;;;;;28.00;25.00;;;;;4.65;65.60;102323.66;5040448;28;45399;-72
2023/01/28 06:08:17;;;;;;;;;38.67;34.00;;;;;4.94;66.31;102349.56;5040703;28;46255;-74
2023/01/28 06:10:43;;;;;;;;;32.33;28.00;;;;;4.55;66.01;102283.69;5058685;28;45373;-73
2023/01/28 06:13:08;;;;;;;;;37.67;30.67;;;;;4.95;66.08;102353.06;5040481;28;45487;-73
2023/01/28 06:15:33;;;;;;;;;44.00;35.33;;;;;4.08;66.76;102220.81;5040335;28;46015;-74
2023/01/28 06:17:59;;;;;;;;;34.33;28.33;;;;;4.54;66.27;102301.28;5040965;28;45313;-75
2023/01/28 06:20:24;;;;;;;;;31.67;27.67;;;;;4.59;66.30;102311.59;5058730;28;45218;-73
2023/01/28 06:22:51;;;;;;;;;38.33;32.00;;;;;4.17;66.74;102251.97;5058410;28;45544;-75
2023/01/28 06:25:17;;;;;;;;;39.00;29.00;;;;;4.39;66.41;102286.13;5040125;28;48702;-73
2023/01/28 06:27:42;;;;;;;;;41.00;34.67;;;;;4.91;66.73;102380.47;5051652;28;45227;-73
2023/01/28 06:30:08;;;;;;;;;28.67;21.33;;;;;4.93;66.41;102378.63;5038493;28;45475;-74
2023/01/28 06:32:34;;;;;;;;;38.67;29.67;;;;;2.50;66.61;101968.13;5027677;28;45466;-72
2023/01/28 06:34:59;;;;;;;;;36.00;29.00;;;;;4.85;65.88;102379.84;5058060;28;45655;-71
2023/01/28 06:37:25;;;;;;;;;40.00;32.67;;;;;4.34;65.90;102282.00;5058151;28;62640;-70
2023/01/28 06:39:50;;;;;;;;;27.33;25.33;;;;;4.57;65.84;102338.00;5060048;28;45376;-70
2023/01/28 06:42:15;;;;;;;;;45.33;38.00;;;;;4.91;66.74;102388.38;5047037;28;45298;-72
2023/01/28 06:44:41;;;;;;;;;38.00;30.67;;;;;4.82;66.61;102387.03;5039641;28;46129;-75
2023/01/28 06:47:08;;;;;;;;;38.00;31.67;;;;;4.85;66.13;102397.44;5048974;28;45448;-71
2023/01/28 06:49:33;;;;;;;;;43.33;34.00;;;;;4.40;66.65;102347.53;5037968;28;45337;-71
2023/01/28 06:51:58;;;;;;;;;30.67;26.33;;;;;4.67;66.86;102390.31;5019194;28;45531;-72
2023/01/28 06:54:24;;;;;;;;;42.33;30.33;;;;;3.54;67.14;102205.56;5019357;28;47807;-71
2023/01/28 06:56:49;;;;;;;;;29.67;26.33;;;;;4.47;66.86;102347.25;5019587;28;45463;-71
2023/01/28 06:59:14;;;;;;;;;28.33;24.00;;;;;4.77;66.24;102396.88;5037427;28;52744;-71
2023/01/28 07:01:40;;;;;;;;;37.33;31.00;;;;;4.13;66.43;102299.56;5038333;28;45499;-72
2023/01/28 07:04:06;;;;;;;;;34.00;28.00;;;;;4.70;66.82;102406.84;5037102;28;67265;-69
2023/01/28 07:06:31;;;;;;;;;31.33;26.67;;;;;4.69;66.64;102414.81;5037779;28;45303;-73
2023/01/28 07:08:56;;;;;;;;;41.00;32.00;;;;;4.74;65.61;102394.38;5037477;28;45196;-72
2023/01/28 07:11:22;;;;;;;;;36.33;28.33;;;;;4.62;66.30;102366.81;5019640;28;45527;-71
2023/01/28 07:13:50;;;;;;;;;35.67;31.67;;;;;3.76;65.36;102229.19;5037211;28;46295;-70
2023/01/28 07:16:16;;;;;;;;;37.67;35.00;;;;;3.81;65.12;102254.41;5035551;28;58140;-73
2023/01/28 07:18:41;;;;;;;;;37.00;33.33;;;;;4.75;66.47;102404.00;5046136;28;47187;-70
2023/01/28 07:21:07;;;;;;;;;24.33;22.00;;;;;4.84;66.22;102408.88;5023215;28;45657;-71
2023/01/28 07:23:32;;;;;;;;;38.67;29.67;;;;;4.84;64.98;102411.53;5033107;28;46300;-71
2023/01/28 07:26:04;;;;;;;;;32.00;24.00;;;;;4.64;65.31;102380.75;5053292;28;45482;-70
2023/01/28 07:28:29;;;;;;;;;37.33;35.00;;;;;3.98;65.76;102280.84;5037147;28;45402;-70
2023/01/28 07:30:54;;;;;;;;;36.00;29.33;;;;;4.70;65.39;102400.72;5037178;28;45451;-71
2023/01/28 07:33:20;;;;;;;;;37.00;27.67;;;;;4.38;65.19;102326.56;5025428;28;48651;-73
2023/01/28 07:35:47;;;;;;;;;30.67;21.67;;;;;4.82;65.23;102419.50;5030764;28;45334;-73
2023/01/28 07:38:12;;;;;;;;;40.67;32.33;;;;;3.82;65.06;102242.97;5037547;28;45543;-73
2023/01/28 07:40:38;;;;;;;;;29.33;24.67;;;;;4.38;65.07;102330.97;5051803;28;45403;-74
2023/01/28 07:43:06;;;;;;;;;29.00;28.00;;;;;4.11;65.14;102298.78;5039410;28;47632;-73
2023/01/28 07:45:32;;;;;;;;;25.33;22.67;;;;;4.76;65.46;102421.50;5038960;28;45509;-72
2023/01/28 07:48:02;;;;;;;;;29.67;26.67;;;;;3.73;65.51;102248.59;5057314;28;45210;-73
2023/01/28 07:50:30;;;;;;;;;37.00;30.00;;;;;4.20;65.62;102337.84;5038805;28;45402;-73
2023/01/28 07:52:56;;;;;;;;;33.00;27.00;;;;;3.54;66.30;102226.59;5037947;28;47331;-72
2023/01/28 07:55:21;;;;;;;;;35.00;28.33;;;;;4.57;66.20;102411.75;5056661;28;45280;-72
2023/01/28 07:57:48;;;;;;;;;20.67;15.33;;;;;4.16;65.93;102349.44;5056996;28;45202;-72
2023/01/28 08:00:14;;;;;;;;;29.00;24.00;;;;;4.24;65.93;102339.47;5057969;28;45280;-72
2023/01/28 08:02:39;;;;;;;;;36.67;32.67;;;;;4.69;65.76;102409.53;5056952;28;46190;-74
2023/01/28 08:05:05;;;;;;;;;38.00;28.00;;;;;4.82;65.65;102427.41;5056840;28;45419;-72
2023/01/28 08:07:30;;;;;;;;;39.33;34.33;;;;;4.54;66.07;102390.81;5056993;28;45432;-73
2023/01/28 08:09:56;;;;;;;;;38.33;35.00;;;;;4.78;65.52;102433.69;5056819;28;45540;-74
2023/01/28 08:12:21;;;;;;;;;39.67;34.00;;;;;3.16;65.46;102139.63;5056719;28;46476;-74
2023/01/28 08:14:46;;;;;;;;;42.00;35.33;;;;;4.49;66.15;102365.59;5056700;28;45332;-74
2023/01/28 08:17:12;;;;;;;;;35.33;32.00;;;;;4.89;65.52;102427.97;5056651;28;45500;-73
2023/01/28 08:19:37;;;;;;;;;38.00;27.67;;;;;4.94;65.34;102436.53;5058553;28;45577;-73
2023/01/28 08:22:02;;;;;;;;;34.67;30.00;;;;;4.44;65.06;102350.00;5039897;28;47426;-72
2023/01/28 08:24:28;;;;;;;;;28.00;24.33;;;;;4.96;65.92;102447.88;5057432;28;45455;-74
2023/01/28 08:26:53;;;;;;;;;34.33;27.33;;;;;4.03;64.54;102282.47;5057304;28;45290;-74
2023/01/28 08:29:18;;;;;;;;;33.67;28.00;;;;;4.89;64.84;102438.53;5057023;28;55686;-73
2023/01/28 08:31:43;;;;;;;;;32.67;28.33;;;;;5.04;64.05;102466.00;5057442;28;46493;-75
2023/01/28 08:34:09;;;;;;;;;29.00;29.00;;;;;4.42;63.74;102354.50;5057814;28;45386;-72
2023/01/28 08:36:34;;;;;;;;;23.00;16.33;;;;;4.98;63.64;102443.38;5057724;28;45428;-71
2023/01/28 08:38:59;;;;;;;;;27.67;25.67;;;;;4.96;63.55;102432.06;5057538;28;49684;-71
2023/01/28 08:41:25;;;;;;;;;26.33;22.00;;;;;5.03;62.87;102465.16;5056358;28;46184;-73
2023/01/28 08:43:50;;;;;;;;;26.33;21.00;;;;;3.77;63.21;102233.53;5038299;28;45270;-73
2023/01/28 08:46:16;;;;;;;;;36.33;32.33;;;;;5.21;63.19;102466.13;5056197;28;45507;-74
2023/01/28 08:48:41;;;;;;;;;36.33;28.67;;;;;5.14;62.66;102468.16;5056499;28;45622;-72
2023/01/28 08:51:07;;;;;;;;;34.00;27.00;;;;;5.09;62.43;102450.84;5037742;28;47579;-73
2023/01/28 08:53:32;;;;;;;;;31.33;29.33;;;;;5.14;61.96;102454.97;5056209;28;45526;-71
2023/01/28 08:55:57;;;;;;;;;29.67;23.67;;;;;4.89;62.23;102439.38;5056319;28;45341;-71
2023/01/28 08:58:23;;;;;;;;;31.33;29.00;;;;;4.99;62.45;102457.41;5038083;28;45571;-72
2023/01/28 09:00:49;;;;;;;;;34.33;32.33;;;;;5.19;62.57;102474.09;5057635;28;46761;-73
2023/01/28 09:03:14;;;;;;;;;27.33;27.33;;;;;4.61;62.55;102364.25;5057704;28;45486;-70
2023/01/28 09:05:40;;;;;;;;;33.00;29.00;;;;;4.70;62.61;102416.53;5056806;28;45477;-72
2023/01/28 09:08:08;;;;;;;;;27.67;25.33;;;;;5.19;62.23;102492.53;5059768;28;45594;-73
2023/01/28 09:10:36;;;;;;;;;26.00;20.33;;;;;4.20;61.51;102312.38;5059529;28;46649;-78
2023/01/28 09:13:10;;;;;;;;;34.33;29.67;;;;;5.15;62.27;102466.38;5041319;28;45416;-72
2023/01/28 09:15:35;;;;;;;;;39.33;31.67;;;;;4.82;62.31;102397.56;5048730;28;45460;-72
2023/01/28 09:18:01;;;;;;;;;29.33;29.33;;;;;5.12;61.84;102446.28;5038591;28;45301;-75
2023/01/28 09:20:27;;;;;;;;;29.67;26.00;;;;;5.33;61.58;102468.22;5038999;28;46676;-76
2023/01/28 09:22:53;;;;;;;;;24.67;23.67;;;;;5.01;61.51;102448.56;5019639;28;45448;-72
2023/01/28 09:25:18;;;;;;;;;29.33;25.00;;;;;5.21;61.87;102523.28;5036422;28;45456;-71
2023/01/28 09:27:43;;;;;;;;;37.00;32.33;;;;;4.68;62.22;102415.72;5036880;28;45592;-73
2023/01/28 09:30:09;;;;;;;;;31.33;28.33;;;;;5.32;62.00;102494.66;5021520;28;48279;-71
2023/01/28 09:32:35;;;;;;;;;35.00;28.00;;;;;4.75;60.70;102396.09;5037410;28;45761;-72
2023/01/28 09:35:01;;;;;;;;;39.67;32.00;;;;;4.78;62.08;102412.63;5037697;28;45510;-72
2023/01/28 09:37:27;;;;;;;;;32.00;28.33;;;;;4.68;61.43;102394.66;5021120;28;45543;-74
2023/01/28 09:39:52;;;;;;;;;22.00;18.33;;;;;5.26;61.51;102508.13;5038675;28;46316;-74
2023/01/28 09:42:45;;;;;;;;;30.33;24.67;;;;;4.13;61.93;102313.56;5021393;28;45474;-73
2023/01/28 09:45:20;;;;;;;;;34.33;30.33;;;;;5.18;61.93;102504.00;4987683;28;45414;-73
2023/01/28 09:47:48;;;;;;;;;27.67;26.00;;;;;5.18;62.14;102504.00;5039297;28;45446;-73
2023/01/28 09:50:22;;;;;;;;;28.00;20.33;;;;;5.29;62.05;102507.97;5021395;28;47571;-73
2023/01/28 09:52:49;;;;;;;;;38.33;31.33;;;;;4.05;62.45;102320.09;5038627;28;45262;-71
2023/01/28 09:55:35;;;;;;;;;33.67;28.00;;;;;5.17;62.22;102512.84;5039637;28;45298;-72
2023/01/28 09:58:01;;;;;;;;;9.67;8.67;;;;;3.71;62.07;102292.53;5041278;28;45187;-72
2023/01/28 10:00:39;;;;;;;;;37.67;32.33;;;;;4.37;61.87;102361.69;5024420;28;49281;-71
2023/01/28 10:03:31;;;;;;;;;33.00;30.00;;;;;4.94;61.53;102467.31;5039766;28;45243;-72
2023/01/28 10:06:18;;;;;;;;;33.00;31.00;;;;;5.20;62.08;102506.59;5038954;28;46016;-71
2023/01/28 10:08:59;;;;;;;;;30.33;26.33;;;;;5.08;61.12;102478.97;5020755;28;45306;-73
2023/01/28 10:11:42;;;;;;;;;23.33;19.33;;;;;5.28;60.54;102499.22;5038674;28;45709;-72
2023/01/28 10:14:20;;;;;;;;;28.00;25.33;;;;;5.13;60.42;102495.44;5038447;28;45715;-70
2023/01/28 10:16:51;;;;;;;;;19.33;18.33;;;;;5.29;60.41;102521.16;5038287;28;45448;-71
2023/01/28 10:19:26;;;;;;;;;31.00;26.00;;;;;4.79;59.43;102437.19;5038620;28;45325;-71
2023/01/28 10:22:01;;;;;;;;;30.33;28.00;;;;;5.23;60.01;102511.75;5020186;28;48228;-71
2023/01/28 10:24:30;;;;;;;;;33.33;24.33;;;;;5.15;60.80;102525.25;5037928;28;45558;-71
2023/01/28 10:26:56;;;;;;;;;27.00;20.00;;;;;5.08;60.03;102507.13;5038158;28;45390;-71
2023/01/28 10:29:25;;;;;;;;;35.33;29.67;;;;;5.09;60.03;102525.50;5051975;28;45517;-70
2023/01/28 10:31:56;;;;;;;;;29.67;28.00;;;;;5.10;61.34;102527.22;5058329;28;45404;-73
2023/01/28 10:34:22;;;;;;;;;23.67;21.00;;;;;4.98;60.61;102482.91;5058330;28;45533;-72
2023/01/28 10:36:48;;;;;;;;;28.67;26.00;;;;;4.58;60.10;102413.47;5058431;28;45496;-74
2023/01/28 10:39:17;;;;;;;;;32.00;28.33;;;;;5.21;59.24;102515.38;5056966;28;45278;-71
2023/01/28 10:41:42;;;;;;;;;27.33;23.33;;;;;4.69;60.22;102441.16;5056833;28;45555;-72
2023/01/28 10:44:33;;;;;;;;;27.67;23.00;;;;;5.23;59.89;102532.00;5058463;28;45485;-72
2023/01/28 10:47:03;;;;;;;;;24.00;21.67;;;;;5.26;60.25;102534.50;5058228;28;45268;-72
2023/01/28 10:49:31;;;;;;;;;27.67;24.00;;;;;5.21;60.14;102539.09;5057837;28;45539;-73
2023/01/28 10:51:57;;;;;;;;;32.67;29.00;;;;;4.73;60.56;102469.06;5057432;28;45682;-72
2023/01/28 10:54:27;;;;;;;;;28.00;22.00;;;;;4.72;60.97;102483.19;5058491;28;45925;-71
2023/01/28 10:57:06;;;;;;;;;26.33;26.00;;;;;5.03;60.87;102548.66;5056473;28;45345;-71
2023/01/28 10:59:35;;;;;;;;;33.67;27.33;;;;;4.98;61.77;102542.69;5056846;28;45606;-71
2023/01/28 11:02:04;;;;;;;;;38.00;30.33;;;;;5.12;61.77;102551.75;5058026;28;45645;-73
2023/01/28 11:04:34;;;;;;;;;32.67;24.00;;;;;4.99;61.37;102539.13;5059485;28;45413;-71
2023/01/28 11:07:01;;;;;;;;;35.33;29.33;;;;;5.06;61.58;102536.19;5060140;28;45431;-72
2023/01/28 11:09:30;;;;;;;;;32.33;25.67;;;;;5.13;60.94;102553.44;5058724;28;45478;-73
2023/01/28 11:11:56;;;;;;;;;31.00;25.33;;;;;5.19;60.88;102558.47;5056675;28;47865;-72
2023/01/28 11:14:24;;;;;;;;;24.00;24.00;;;;;5.03;60.57;102490.66;5057853;28;45254;-72
2023/01/28 11:16:52;;;;;;;;;30.00;26.33;;;;;5.24;60.68;102533.69;5055897;28;45464;-74
2023/01/28 11:19:21;;;;;;;;;28.00;22.67;;;;;4.98;60.64;102529.50;5056375;28;45515;-73
2023/01/28 11:21:55;;;;;;;;;31.00;25.33;;;;;5.00;60.97;102528.53;5059325;28;45668;-72
2023/01/28 11:24:29;;;;;;;;;32.33;28.00;;;;;4.98;61.41;102519.81;5057281;28;45258;-71
2023/01/28 11:26:57;;;;;;;;;26.00;25.33;;;;;4.87;60.77;102485.16;5057504;28;45491;-74
2023/01/28 11:29:31;;;;;;;;;31.00;27.33;;;;;5.08;61.15;102529.06;5055676;28;45459;-72
2023/01/28 11:31:59;;;;;;;;;32.67;27.67;;;;;4.73;61.02;102437.47;5056233;28;48914;-71
2023/01/28 11:34:27;;;;;;;;;27.33;21.00;;;;;5.26;60.33;102494.94;5056385;28;45339;-72
2023/01/28 11:37:02;;;;;;;;;36.00;28.67;;;;;4.96;60.78;102447.88;5057773;28;45383;-71
2023/01/28 11:39:28;;;;;;;;;31.67;27.67;;;;;5.03;59.99;102430.88;5059670;28;45364;-72
2023/01/28 11:42:02;;;;;;;;;32.67;27.33;;;;;5.15;59.34;102461.09;5058254;28;47690;-74
2023/01/28 11:44:27;;;;;;;;;31.33;24.67;;;;;5.20;59.94;102456.47;5057435;28;45532;-71
2023/01/28 11:47:31;;;;;;;;;30.00;27.00;;;;;5.69;58.74;102509.72;5057838;28;45367;-72
2023/01/28 11:50:15;;;;;;;;;29.00;27.33;;;;;5.82;58.68;102515.28;5056349;28;45553;-72
2023/01/28 11:52:46;;;;;;;;;29.33;26.67;;;;;5.75;58.38;102506.78;5057816;28;46540;-70